ENNA METAR and TAF weather

Enter ICAO airport designator
Station Type Date Time Source
ENNA METAR 2018/12/18 10:20 UTC NOAA

ENNA 181020Z 14006KT 9999 BKN039 M06/M10 Q1029 RMK WIND 1800FT 16005KT


Station Type Date Time Source
ENNA Decoded METAR 2018/12/18 10:20 UTC NOAA

Banak, Norway (ENNA) 70-04N 024-59E 8M
Dec 18, 2018 - 05:20 AM EST / 2018.12.18 1020 UTC
Wind: from the SE (140 degrees) at 7 MPH (6 KT):0
Visibility: greater than 7 mile(s):0
Sky conditions: mostly cloudy
Temperature: 21 F (-6 C)
Windchill: 12 F (-11 C):1
Dew Point: 14 F (-10 C)
Relative Humidity: 73%
Pressure (altimeter): 30.39 in. Hg (1029 hPa)
ob: ENNA 181020Z 14006KT 9999 BKN039 M06/M10 Q1029 RMK WIND 1800FT 16005KT
cycle: 10

Station Type Date Time Source
ENNA TAF 2018/12/18 07:57 UTC NOAA

TAF
AMD
AMD ENNA 1807/1906 19008KT 9999 FEW010 SCT020


Example: see airport list